Burrows, Indiana
Current Conditions -  °F | °C
As of 11:35 AM on Friday 31 Oct 2014 (Local Time) from KGGP Reporting Station
Overcast Overcast  
Wind Chill: 33°   Ceiling: 2100
Heat Index: 39°   Visibility: 10mi
Dew Point: 34°   Wind: 9mph
Humidity: 81%   Direction: 300°WNW
Pressure: 30.02"   Gusts: 18mph
Location:  40.68°N, 86.51°W
Report Text: KGGP 311535Z AUTO 30008G16KT 10SM OVC021 04/01 A3002 RMK AO2
Loading
Personal Weather Stations






























Interactive Weather Map
Tropical Storm Tracking
New forecast layout! Learn more

10-Day Weather Forecast

Advertisements
Track Severe Weather on mobile